Terminal Aerodrome Forecast
Issued by NWS New Orleans/Baton Rouge, LA

Home | Current Version | Previous Version | Text Only | Print | Product List | Glossary On
Versions: 1 2 3 4 5 6 7 8 9 10 11 12 13 14 15 16 17 18 19 20 21 22 23 24 25
000
FTUS44 KLIX 301700 RRA
TAFNEW
TAF
KNEW 301759Z 3018/3118 17014KT 6SM RA OVC025
      TEMPO 3018/3022 VRB15G25KT 1SM TSRA BKN020CB
     FM310030 17008KT P6SM BKN090
     FM311400 17007KT P6SM BKN200=

USA.gov is the U.S. government's official web portal to all federal, state and local government web resources and services.